Time;durP1;ratioP1;P1;durP2;ratioP2;P2;SDS_P1;SDS_P2;PMS_P1;PMS_P2;Temp;Humidity;BMP_temperature;BMP_pressure;BME280_temperature;BME280_humidity;BME280_pressure;Samples;Min_cycle;Max_cycle;Signal;HPM_P1;HPM_P2
2023/08/02 00:01:56;;;;;;;;;;;18.00;99.90;;;;;;7377856;19;108620;-86
2023/08/02 00:04:23;;;;;;;;;;;18.00;99.90;;;;;;7378268;19;108584;-85
2023/08/02 00:06:50;;;;;;;;;;;17.90;99.90;;;;;;7357432;19;110115;-85
2023/08/02 00:09:17;;;;;;;;;;;17.90;99.90;;;;;;7348992;19;108576;-85
2023/08/02 00:11:44;;;;;;;;;;;18.00;99.90;;;;;;7348831;19;109758;-85
2023/08/02 00:14:11;;;;;;;;;;;17.90;99.90;;;;;;7342820;19;109163;-85
2023/08/02 00:16:38;;;;;;;;;;;17.90;99.90;;;;;;7349487;19;108490;-85
2023/08/02 00:19:06;;;;;;;;;;;17.90;99.90;;;;;;7342893;19;109548;-85
2023/08/02 00:21:33;;;;;;;;;;;18.00;99.90;;;;;;7350663;19;112576;-85
2023/08/02 00:24:00;;;;;;;;;;;17.90;99.90;;;;;;7344490;19;111576;-86
2023/08/02 00:26:27;;;;;;;;;;;17.90;99.90;;;;;;7342155;19;109134;-85
2023/08/02 00:28:54;;;;;;;;;;;17.90;99.90;;;;;;7341718;19;109213;-65
2023/08/02 00:31:22;;;;;;;;;;;18.00;99.90;;;;;;7339305;19;109685;-85
2023/08/02 00:33:50;;;;;;;;;;;18.00;99.90;;;;;;7344911;19;110129;-86
2023/08/02 00:36:17;;;;;;;;;;;18.00;99.90;;;;;;7341584;19;108696;-85
2023/08/02 00:38:44;;;;;;;;;;;18.00;99.90;;;;;;7341876;19;110828;-86
2023/08/02 00:41:11;;;;;;;;;;;18.00;99.90;;;;;;7339918;19;110487;-85
2023/08/02 00:43:39;;;;;;;;;;;18.00;99.90;;;;;;7348467;19;108767;-85
2023/08/02 00:46:10;;;;;;;;;;;18.00;99.90;;;;;;7341444;19;110321;-85
2023/08/02 00:48:38;;;;;;;;;;;18.00;99.90;;;;;;7343105;19;109072;-85
2023/08/02 00:51:08;;;;;;;;;;;18.00;99.90;;;;;;7339710;19;109227;-85
2023/08/02 00:53:35;;;;;;;;;;;18.00;99.90;;;;;;7342765;19;110325;-85
2023/08/02 00:56:03;;;;;;;;;;;18.10;99.90;;;;;;7342405;19;109051;-86
2023/08/02 00:58:30;;;;;;;;;;;18.00;99.90;;;;;;7341538;19;109805;-85
2023/08/02 01:01:06;;;;;;;;;;;18.00;99.90;;;;;;7345959;19;109544;-85
2023/08/02 01:03:34;;;;;;;;;;;18.00;99.90;;;;;;7337286;19;109030;-85
2023/08/02 01:06:05;;;;;;;;;;;18.00;99.90;;;;;;7342016;19;109116;-85
2023/08/02 01:08:35;;;;;;;;;;;18.00;99.90;;;;;;7340607;19;109894;-85
2023/08/02 01:11:10;;;;;;;;;;;18.00;99.90;;;;;;7340479;19;108983;-85
2023/08/02 01:13:39;;;;;;;;;;;18.10;99.90;;;;;;7335402;19;108828;-85
2023/08/02 01:16:06;;;;;;;;;;;18.10;99.90;;;;;;7341618;19;108977;-85
2023/08/02 01:18:33;;;;;;;;;;;18.10;99.90;;;;;;7337394;19;108752;-85
2023/08/02 01:21:01;;;;;;;;;;;18.10;99.90;;;;;;7338004;19;109267;-85
2023/08/02 01:23:28;;;;;;;;;;;18.10;99.90;;;;;;7335938;19;108772;-85
2023/08/02 01:25:57;;;;;;;;;;;18.00;99.90;;;;;;7340370;19;108634;-85
2023/08/02 01:28:27;;;;;;;;;;;18.10;99.90;;;;;;7340085;19;109898;-85
2023/08/02 01:30:54;;;;;;;;;;;18.00;99.90;;;;;;7340405;19;109174;-85
2023/08/02 01:33:22;;;;;;;;;;;18.00;99.90;;;;;;7336439;19;112758;-85
2023/08/02 01:35:50;;;;;;;;;;;18.00;99.90;;;;;;7341411;19;109566;-85
2023/08/02 01:38:17;;;;;;;;;;;17.90;99.90;;;;;;7333223;19;113553;-85
2023/08/02 01:40:44;;;;;;;;;;;18.00;99.90;;;;;;7342459;19;112323;-85
2023/08/02 01:43:11;;;;;;;;;;;18.00;99.90;;;;;;7334968;19;108560;-85
2023/08/02 01:45:38;;;;;;;;;;;18.00;99.90;;;;;;7338673;19;110940;-85
2023/08/02 01:48:05;;;;;;;;;;;17.90;99.90;;;;;;7334573;19;109096;-85
2023/08/02 01:50:32;;;;;;;;;;;18.00;99.90;;;;;;7341334;19;108723;-85
2023/08/02 01:52:59;;;;;;;;;;;18.00;99.90;;;;;;7341309;19;110356;-85
2023/08/02 01:55:26;;;;;;;;;;;18.00;99.90;;;;;;7337129;19;109868;-85
2023/08/02 01:57:53;;;;;;;;;;;18.00;99.90;;;;;;7341925;19;109402;-85
2023/08/02 02:00:21;;;;;;;;;;;18.00;99.90;;;;;;7336618;19;108831;-86
2023/08/02 02:02:49;;;;;;;;;;;18.00;99.90;;;;;;7339371;19;108457;-86
2023/08/02 02:05:16;;;;;;;;;;;18.00;99.90;;;;;;7336110;19;108650;-85
2023/08/02 02:07:43;;;;;;;;;;;18.00;99.90;;;;;;7336000;19;110280;-85
2023/08/02 02:10:11;;;;;;;;;;;18.00;99.90;;;;;;7341399;19;109729;-85
2023/08/02 02:12:38;;;;;;;;;;;18.00;99.90;;;;;;7338247;19;111471;-85
2023/08/02 02:15:05;;;;;;;;;;;17.90;99.90;;;;;;7337927;19;109999;-85
2023/08/02 02:17:32;;;;;;;;;;;17.90;99.90;;;;;;7334246;19;108631;-85
2023/08/02 02:19:59;;;;;;;;;;;17.90;99.90;;;;;;7337392;19;110912;-85
2023/08/02 02:22:27;;;;;;;;;;;17.90;99.90;;;;;;7333961;19;108787;-85
2023/08/02 02:24:54;;;;;;;;;;;17.90;99.90;;;;;;7339627;19;110502;-85
2023/08/02 02:27:21;;;;;;;;;;;17.90;99.90;;;;;;7335516;19;110536;-85
2023/08/02 02:29:48;;;;;;;;;;;17.90;99.90;;;;;;7336223;19;108687;-85
2023/08/02 02:32:16;;;;;;;;;;;17.90;99.90;;;;;;7339979;19;110027;-85
2023/08/02 02:34:43;;;;;;;;;;;17.90;99.90;;;;;;7336715;19;108454;-85
2023/08/02 02:37:10;;;;;;;;;;;17.90;99.90;;;;;;7335720;19;109644;-85
2023/08/02 02:39:38;;;;;;;;;;;17.90;99.90;;;;;;7334291;19;110263;-85
2023/08/02 02:42:05;;;;;;;;;;;17.90;99.90;;;;;;7336668;19;108565;-85
2023/08/02 02:44:41;;;;;;;;;;;17.90;99.90;;;;;;7335877;19;110745;-85
2023/08/02 02:47:09;;;;;;;;;;;17.90;99.90;;;;;;7338154;19;109717;-84
2023/08/02 02:49:36;;;;;;;;;;;17.90;99.90;;;;;;7337793;19;109024;-85
2023/08/02 02:52:04;;;;;;;;;;;17.90;99.90;;;;;;7336864;19;109055;-85
2023/08/02 02:54:31;;;;;;;;;;;17.90;99.90;;;;;;7342156;19;109682;-85
2023/08/02 02:56:58;;;;;;;;;;;17.90;99.90;;;;;;7336379;19;109154;-85
2023/08/02 02:59:27;;;;;;;;;;;17.90;99.90;;;;;;7334745;19;110463;-85
2023/08/02 03:01:54;;;;;;;;;;;17.90;99.90;;;;;;7337489;19;109095;-85
2023/08/02 03:04:22;;;;;;;;;;;17.90;99.90;;;;;;7331135;19;109015;-85
2023/08/02 03:06:50;;;;;;;;;;;17.90;99.90;;;;;;7333459;19;110332;-65
2023/08/02 03:09:17;;;;;;;;;;;17.80;99.90;;;;;;7326108;19;110621;-65
2023/08/02 03:11:45;;;;;;;;;;;17.80;99.90;;;;;;7329771;19;109332;-66
2023/08/02 03:14:13;;;;;;;;;;;17.80;99.90;;;;;;7328743;19;109833;-65
2023/08/02 03:16:43;;;;;;;;;;;17.80;99.90;;;;;;7334029;19;109969;-65
2023/08/02 03:19:11;;;;;;;;;;;17.80;99.90;;;;;;7329724;19;109076;-65
2023/08/02 03:21:39;;;;;;;;;;;17.80;99.90;;;;;;7331044;19;108958;-66
2023/08/02 03:24:06;;;;;;;;;;;17.90;99.90;;;;;;7335610;19;108454;-67
2023/08/02 03:26:34;;;;;;;;;;;17.90;99.90;;;;;;7329580;19;112580;-65
2023/08/02 03:29:01;;;;;;;;;;;17.90;99.90;;;;;;7330448;19;108367;-65
2023/08/02 03:31:28;;;;;;;;;;;17.90;99.90;;;;;;7331489;19;108444;-66
2023/08/02 03:33:56;;;;;;;;;;;17.90;99.90;;;;;;7327830;19;110171;-66
2023/08/02 03:36:23;;;;;;;;;;;17.80;99.90;;;;;;7330429;19;108947;-65
2023/08/02 03:38:50;;;;;;;;;;;17.80;99.90;;;;;;7335150;19;109217;-66
2023/08/02 03:41:17;;;;;;;;;;;17.80;99.90;;;;;;7331308;19;108959;-65
2023/08/02 03:43:44;;;;;;;;;;;17.80;99.90;;;;;;7327283;19;108579;-65
2023/08/02 03:46:11;;;;;;;;;;;17.80;99.90;;;;;;7328693;19;109078;-65
2023/08/02 03:48:39;;;;;;;;;;;17.80;99.90;;;;;;7327468;19;110453;-68
2023/08/02 03:51:06;;;;;;;;;;;17.90;99.90;;;;;;7328736;19;108713;-63
2023/08/02 03:53:33;;;;;;;;;;;17.90;99.90;;;;;;7327964;19;109950;-67
2023/08/02 03:56:00;;;;;;;;;;;17.80;99.90;;;;;;7334643;19;108389;-67
2023/08/02 03:58:28;;;;;;;;;;;17.80;99.90;;;;;;7336677;19;108651;-67
2023/08/02 04:00:55;;;;;;;;;;;17.80;99.90;;;;;;7332724;19;108877;-67
2023/08/02 04:03:22;;;;;;;;;;;17.80;99.90;;;;;;7327166;19;110121;-67
2023/08/02 04:05:49;;;;;;;;;;;17.80;99.90;;;;;;7331425;19;110836;-67
2023/08/02 04:08:17;;;;;;;;;;;17.80;99.90;;;;;;7331096;19;109295;-67
2023/08/02 04:10:44;;;;;;;;;;;17.80;99.90;;;;;;7329849;19;109433;-68
2023/08/02 04:13:11;;;;;;;;;;;17.80;99.90;;;;;;7328744;19;109716;-67
2023/08/02 04:15:38;;;;;;;;;;;17.80;99.90;;;;;;7334204;19;109154;-67
2023/08/02 04:18:05;;;;;;;;;;;17.80;99.90;;;;;;7337462;19;109161;-68
2023/08/02 04:20:35;;;;;;;;;;;17.80;99.90;;;;;;7342873;19;109134;-67
2023/08/02 04:23:02;;;;;;;;;;;17.70;99.90;;;;;;7337783;19;110612;-68
2023/08/02 04:25:30;;;;;;;;;;;17.70;99.90;;;;;;7335432;19;108932;-67
2023/08/02 04:27:57;;;;;;;;;;;17.70;99.90;;;;;;7335794;19;108547;-68
2023/08/02 04:30:24;;;;;;;;;;;17.70;99.90;;;;;;7336743;19;113160;-68
2023/08/02 04:32:51;;;;;;;;;;;17.70;99.90;;;;;;7335842;19;109079;-67
2023/08/02 04:35:18;;;;;;;;;;;17.70;99.90;;;;;;7340080;19;110060;-67
2023/08/02 04:37:46;;;;;;;;;;;17.70;99.90;;;;;;7336195;19;109413;-67
2023/08/02 04:40:16;;;;;;;;;;;17.80;99.90;;;;;;7336769;19;109765;-69
2023/08/02 04:42:44;;;;;;;;;;;17.70;99.90;;;;;;7342570;19;108477;-69
2023/08/02 04:45:11;;;;;;;;;;;17.70;99.90;;;;;;7335154;19;109108;-69
2023/08/02 04:47:39;;;;;;;;;;;17.70;99.90;;;;;;7337077;19;109101;-68
2023/08/02 04:50:06;;;;;;;;;;;17.80;99.90;;;;;;7336752;19;110661;-69
2023/08/02 04:52:34;;;;;;;;;;;17.80;99.90;;;;;;7335686;19;110505;-69
2023/08/02 04:55:01;;;;;;;;;;;17.70;99.90;;;;;;7337324;19;108458;-69
2023/08/02 04:57:28;;;;;;;;;;;17.70;99.90;;;;;;7340086;19;109152;-69
2023/08/02 04:59:55;;;;;;;;;;;17.70;99.90;;;;;;7331096;19;111266;-68
2023/08/02 05:02:26;;;;;;;;;;;17.70;99.90;;;;;;7338304;19;109955;-68
2023/08/02 05:04:53;;;;;;;;;;;17.70;99.90;;;;;;7337640;19;108952;-69
2023/08/02 05:07:20;;;;;;;;;;;17.70;99.90;;;;;;7334243;19;110008;-68
2023/08/02 05:09:47;;;;;;;;;;;17.80;99.90;;;;;;7339138;19;108682;-68
2023/08/02 05:12:14;;;;;;;;;;;17.70;99.90;;;;;;7329900;19;111109;-68
2023/08/02 05:14:41;;;;;;;;;;;17.70;99.90;;;;;;7337857;19;109763;-69
2023/08/02 05:17:08;;;;;;;;;;;17.70;99.90;;;;;;7332000;19;108840;-69
2023/08/02 05:19:36;;;;;;;;;;;17.70;99.90;;;;;;7338021;19;109533;-68
2023/08/02 05:22:03;;;;;;;;;;;17.70;99.90;;;;;;7336196;19;109885;-69
2023/08/02 05:24:30;;;;;;;;;;;17.70;99.90;;;;;;7327343;19;111927;-69
2023/08/02 05:26:57;;;;;;;;;;;17.80;99.90;;;;;;7337442;19;109442;-69
2023/08/02 05:29:24;;;;;;;;;;;17.70;99.90;;;;;;7332399;19;111429;-69
2023/08/02 05:31:51;;;;;;;;;;;17.70;99.90;;;;;;7338553;19;109073;-68
2023/08/02 05:34:18;;;;;;;;;;;17.70;99.90;;;;;;7334486;19;109074;-66
2023/08/02 05:36:45;;;;;;;;;;;17.70;99.90;;;;;;7335544;19;109487;-68
2023/08/02 05:39:12;;;;;;;;;;;17.70;99.90;;;;;;7331157;19;111813;-68
2023/08/02 05:41:39;;;;;;;;;;;17.70;99.90;;;;;;7338047;19;109188;-67
2023/08/02 05:44:07;;;;;;;;;;;17.70;99.90;;;;;;7334256;19;109648;-67
2023/08/02 05:46:34;;;;;;;;;;;17.70;99.90;;;;;;7333461;19;109785;-67
2023/08/02 05:49:01;;;;;;;;;;;17.70;99.90;;;;;;7341165;19;108368;-67
2023/08/02 05:51:28;;;;;;;;;;;17.70;99.90;;;;;;7329991;19;109608;-68
2023/08/02 05:53:55;;;;;;;;;;;17.70;99.90;;;;;;7335191;19;108715;-66
2023/08/02 05:56:22;;;;;;;;;;;17.70;99.90;;;;;;7334415;19;110546;-67
2023/08/02 05:58:49;;;;;;;;;;;17.70;99.90;;;;;;7333911;19;110671;-67
2023/08/02 06:01:16;;;;;;;;;;;17.70;99.90;;;;;;7329573;19;109777;-68
2023/08/02 06:03:44;;;;;;;;;;;17.80;99.90;;;;;;7333638;19;110059;-68
2023/08/02 06:06:12;;;;;;;;;;;17.70;99.90;;;;;;7334427;19;110265;-68
2023/08/02 06:08:41;;;;;;;;;;;17.70;99.90;;;;;;7337761;19;111535;-69
2023/08/02 06:11:08;;;;;;;;;;;17.70;99.90;;;;;;7335691;19;111487;-71
2023/08/02 06:13:35;;;;;;;;;;;17.80;99.90;;;;;;7333397;19;108664;-68
2023/08/02 06:16:02;;;;;;;;;;;17.80;99.90;;;;;;7332694;19;108747;-68
2023/08/02 06:18:30;;;;;;;;;;;17.80;99.90;;;;;;7331963;19;110320;-68
2023/08/02 06:20:57;;;;;;;;;;;17.80;99.90;;;;;;7332816;19;108467;-68
2023/08/02 06:23:24;;;;;;;;;;;17.90;99.90;;;;;;7334637;19;110669;-68
2023/08/02 06:25:51;;;;;;;;;;;17.90;99.90;;;;;;7334491;19;109138;-69
2023/08/02 06:28:18;;;;;;;;;;;17.90;99.90;;;;;;7336332;19;109297;-68
2023/08/02 06:30:45;;;;;;;;;;;17.90;99.90;;;;;;7338406;19;109129;-68
2023/08/02 06:33:12;;;;;;;;;;;18.00;99.90;;;;;;7329911;19;110800;-69
2023/08/02 06:35:39;;;;;;;;;;;18.00;99.90;;;;;;7331090;19;108601;-69
2023/08/02 06:38:07;;;;;;;;;;;18.00;99.90;;;;;;7329604;19;109794;-68
2023/08/02 06:40:34;;;;;;;;;;;18.10;99.90;;;;;;7334001;19;110363;-68
2023/08/02 06:43:01;;;;;;;;;;;18.10;99.90;;;;;;7330667;19;108662;-68
2023/08/02 06:45:28;;;;;;;;;;;18.10;99.90;;;;;;7330917;19;109712;-68
2023/08/02 06:47:55;;;;;;;;;;;18.10;99.90;;;;;;7331048;19;108557;-68
2023/08/02 06:50:23;;;;;;;;;;;18.20;99.90;;;;;;7332146;19;110025;-68
2023/08/02 06:52:50;;;;;;;;;;;18.20;99.90;;;;;;7340717;19;109388;-68
2023/08/02 06:55:18;;;;;;;;;;;18.20;99.90;;;;;;7332645;19;108507;-68
2023/08/02 06:57:45;;;;;;;;;;;18.30;99.90;;;;;;7334643;19;109105;-68
2023/08/02 07:00:12;;;;;;;;;;;18.30;99.90;;;;;;7330788;19;111302;-68
2023/08/02 07:02:39;;;;;;;;;;;18.30;99.90;;;;;;7333808;19;109066;-69
2023/08/02 07:05:07;;;;;;;;;;;18.30;99.90;;;;;;7330242;19;109632;-68
2023/08/02 07:07:36;;;;;;;;;;;18.30;99.90;;;;;;7330103;19;108937;-68
2023/08/02 07:10:04;;;;;;;;;;;18.40;99.90;;;;;;7332663;19;108595;-69
2023/08/02 07:12:31;;;;;;;;;;;18.50;99.90;;;;;;7333153;19;109067;-68
2023/08/02 07:14:58;;;;;;;;;;;18.50;99.90;;;;;;7336735;19;109390;-68
2023/08/02 07:17:25;;;;;;;;;;;18.60;99.90;;;;;;7331200;19;110501;-68
2023/08/02 07:19:52;;;;;;;;;;;18.60;99.90;;;;;;7332413;19;108913;-68
2023/08/02 07:22:19;;;;;;;;;;;18.60;99.90;;;;;;7331622;19;109509;-68
2023/08/02 07:24:46;;;;;;;;;;;18.60;99.90;;;;;;7330980;19;109979;-68
2023/08/02 07:27:13;;;;;;;;;;;18.70;99.90;;;;;;7333897;19;109433;-68
2023/08/02 07:29:41;;;;;;;;;;;18.80;99.90;;;;;;7332688;19;108825;-68
2023/08/02 07:32:10;;;;;;;;;;;18.90;99.90;;;;;;7331621;19;109810;-70
2023/08/02 07:34:37;;;;;;;;;;;18.90;99.90;;;;;;7333474;19;109392;-68
2023/08/02 07:37:04;;;;;;;;;;;19.00;99.90;;;;;;7335077;19;108998;-68
2023/08/02 07:39:31;;;;;;;;;;;19.10;99.90;;;;;;7331087;19;109414;-68
2023/08/02 07:41:58;;;;;;;;;;;19.10;99.90;;;;;;7330537;19;108923;-68
2023/08/02 07:44:25;;;;;;;;;;;19.20;99.90;;;;;;7331528;19;109803;-71
2023/08/02 07:46:53;;;;;;;;;;;19.20;99.90;;;;;;7326562;19;110059;-69
2023/08/02 07:49:20;;;;;;;;;;;19.30;99.90;;;;;;7334164;19;108880;-69
2023/08/02 07:51:47;;;;;;;;;;;19.40;99.90;;;;;;7337066;19;109065;-68
2023/08/02 07:54:14;;;;;;;;;;;19.40;99.90;;;;;;7340974;19;113832;-69
2023/08/02 07:56:41;;;;;;;;;;;19.50;99.90;;;;;;7340319;19;108999;-68
2023/08/02 07:59:08;;;;;;;;;;;19.60;99.90;;;;;;7348844;19;109848;-69
2023/08/02 08:01:35;;;;;;;;;;;19.70;99.90;;;;;;7337764;19;108607;-68
2023/08/02 08:04:02;;;;;;;;;;;19.70;99.90;;;;;;7334952;19;109075;-67
2023/08/02 08:06:30;;;;;;;;;;;19.70;99.90;;;;;;7339723;19;109009;-68
2023/08/02 08:08:57;;;;;;;;;;;19.80;99.90;;;;;;7336558;19;110235;-68
2023/08/02 08:11:28;;;;;;;;;;;19.90;99.90;;;;;;7340887;19;109080;-67
2023/08/02 08:13:55;;;;;;;;;;;20.00;99.90;;;;;;7340085;19;111277;-68
2023/08/02 08:16:22;;;;;;;;;;;20.00;99.90;;;;;;7342790;19;108991;-69
2023/08/02 08:18:50;;;;;;;;;;;20.10;99.90;;;;;;7347677;19;111575;-68
2023/08/02 08:21:17;;;;;;;;;;;20.20;99.90;;;;;;7338837;19;109689;-69
2023/08/02 08:23:44;;;;;;;;;;;20.20;99.90;;;;;;7341457;19;109577;-67
2023/08/02 08:26:12;;;;;;;;;;;20.30;99.90;;;;;;7339415;19;110249;-67
2023/08/02 08:28:39;;;;;;;;;;;20.50;99.90;;;;;;7338619;19;109867;-68
2023/08/02 08:31:06;;;;;;;;;;;20.60;99.90;;;;;;7340553;19;109195;-68
2023/08/02 08:33:33;;;;;;;;;;;20.70;99.90;;;;;;7342188;19;108666;-68
2023/08/02 08:36:00;;;;;;;;;;;20.80;99.90;;;;;;7336777;19;108768;-68
2023/08/02 08:38:27;;;;;;;;;;;20.90;99.90;;;;;;7339087;19;109232;-67
2023/08/02 08:40:55;;;;;;;;;;;21.10;99.90;;;;;;7347242;19;109777;-66
2023/08/02 08:43:28;;;;;;;;;;;21.20;99.90;;;;;;7345681;19;109078;-67
2023/08/02 08:45:59;;;;;;;;;;;21.30;99.90;;;;;;7349035;19;108652;-66
2023/08/02 08:48:26;;;;;;;;;;;21.40;99.90;;;;;;7347838;19;109068;-68
2023/08/02 08:50:54;;;;;;;;;;;21.50;99.90;;;;;;7349940;19;110358;-66
2023/08/02 08:53:32;;;;;;;;;;;21.60;99.90;;;;;;7349185;19;108829;-67
2023/08/02 08:56:00;;;;;;;;;;;21.70;99.90;;;;;;7351950;19;109309;-67
2023/08/02 08:58:28;;;;;;;;;;;21.80;99.90;;;;;;7346241;19;110170;-67
2023/08/02 09:00:56;;;;;;;;;;;21.80;99.90;;;;;;7347321;19;108580;-68
2023/08/02 09:03:23;;;;;;;;;;;21.80;99.90;;;;;;7352052;19;110839;-67
2023/08/02 09:05:50;;;;;;;;;;;21.90;99.90;;;;;;7350771;19;108755;-66
2023/08/02 09:08:18;;;;;;;;;;;22.00;99.90;;;;;;7348681;19;110943;-65
2023/08/02 09:10:45;;;;;;;;;;;22.00;99.90;;;;;;7349809;19;110091;-69
2023/08/02 09:13:22;;;;;;;;;;;22.10;99.90;;;;;;7346657;19;108437;-73
2023/08/02 09:16:07;;;;;;;;;;;22.10;99.90;;;;;;7346321;19;111570;-73
2023/08/02 09:18:36;;;;;;;;;;;22.20;99.90;;;;;;7337748;19;110656;-70
2023/08/02 09:21:03;;;;;;;;;;;22.20;99.90;;;;;;7335426;19;110075;-69
2023/08/02 09:23:31;;;;;;;;;;;22.20;99.90;;;;;;7337862;19;109199;-70
2023/08/02 09:26:18;;;;;;;;;;;22.30;99.90;;;;;;7340475;19;109597;-70
2023/08/02 09:28:58;;;;;;;;;;;22.30;99.90;;;;;;7336429;19;108727;-73
2023/08/02 09:31:26;;;;;;;;;;;22.40;99.90;;;;;;7334516;19;109105;-71
2023/08/02 09:33:54;;;;;;;;;;;22.50;99.90;;;;;;7336852;19;109584;-73
2023/08/02 09:36:41;;;;;;;;;;;22.50;99.90;;;;;;7333696;19;111118;-70
2023/08/02 09:39:08;;;;;;;;;;;22.50;99.90;;;;;;7334521;19;109116;-69
2023/08/02 09:41:35;;;;;;;;;;;22.50;99.90;;;;;;7336850;19;108832;-71
2023/08/02 09:44:06;;;;;;;;;;;22.60;99.90;;;;;;7335536;19;108940;-71
2023/08/02 09:46:34;;;;;;;;;;;22.70;99.90;;;;;;7336270;19;110078;-70
2023/08/02 09:49:15;;;;;;;;;;;22.80;99.90;;;;;;7341082;19;108780;-76
2023/08/02 09:51:44;;;;;;;;;;;23.00;99.90;;;;;;7334357;19;110352;-69
2023/08/02 09:54:12;;;;;;;;;;;23.10;99.90;;;;;;7337077;19;108457;-71
2023/08/02 09:56:40;;;;;;;;;;;23.20;99.90;;;;;;7335628;19;108821;-69
2023/08/02 09:59:08;;;;;;;;;;;23.30;99.90;;;;;;7336998;19;109465;-69
2023/08/02 10:01:35;;;;;;;;;;;23.40;99.90;;;;;;7333126;19;108789;-72
2023/08/02 10:04:04;;;;;;;;;;;23.60;99.90;;;;;;7333946;19;109572;-77
2023/08/02 10:06:33;;;;;;;;;;;23.70;99.90;;;;;;7333082;19;109193;-68
2023/08/02 10:09:07;;;;;;;;;;;23.70;99.90;;;;;;7335281;19;108429;-70
2023/08/02 10:11:43;;;;;;;;;;;23.70;99.90;;;;;;7340533;19;108797;-73
2023/08/02 10:14:11;;;;;;;;;;;23.70;99.90;;;;;;7333799;19;108998;-70
2023/08/02 10:16:39;;;;;;;;;;;23.60;99.90;;;;;;7331917;19;108827;-71
2023/08/02 10:19:07;;;;;;;;;;;23.60;99.90;;;;;;7334056;19;109066;-73
2023/08/02 10:21:35;;;;;;;;;;;23.70;99.90;;;;;;7333070;19;108788;-68
2023/08/02 10:24:03;;;;;;;;;;;23.70;99.90;;;;;;7335031;19;108554;-69
2023/08/02 10:26:30;;;;;;;;;;;23.70;99.90;;;;;;7331115;19;109135;-73
2023/08/02 10:28:58;;;;;;;;;;;23.50;99.90;;;;;;7333984;19;108992;-78
2023/08/02 10:31:26;;;;;;;;;;;23.30;99.90;;;;;;7334463;19;109224;-68
2023/08/02 10:33:53;;;;;;;;;;;23.10;99.90;;;;;;7335939;19;109112;-77
2023/08/02 10:36:20;;;;;;;;;;;23.00;99.90;;;;;;7332065;19;109192;-71
2023/08/02 10:38:48;;;;;;;;;;;22.90;99.90;;;;;;7335038;19;110096;-74
2023/08/02 10:41:16;;;;;;;;;;;22.70;99.90;;;;;;7333931;19;110075;-74
2023/08/02 10:43:53;;;;;;;;;;;22.60;99.90;;;;;;7334604;19;110955;-73
2023/08/02 10:46:22;;;;;;;;;;;22.50;99.90;;;;;;7335082;19;110387;-74
2023/08/02 10:48:49;;;;;;;;;;;22.60;99.90;;;;;;7333050;19;109284;-71
2023/08/02 10:51:30;;;;;;;;;;;22.60;99.90;;;;;;7334425;19;110767;-71
2023/08/02 10:54:15;;;;;;;;;;;22.80;99.90;;;;;;7340459;19;109911;-69
2023/08/02 10:56:51;;;;;;;;;;;22.90;99.90;;;;;;7333620;19;109572;-68
2023/08/02 10:59:25;;;;;;;;;;;23.00;99.90;;;;;;7333896;19;109279;-74
2023/08/02 11:01:53;;;;;;;;;;;23.00;99.90;;;;;;7328157;19;109354;-72
2023/08/02 11:04:21;;;;;;;;;;;23.10;99.90;;;;;;7332959;19;108849;-72
2023/08/02 11:06:48;;;;;;;;;;;23.20;99.90;;;;;;7333740;19;111045;-71
2023/08/02 11:09:16;;;;;;;;;;;23.20;99.90;;;;;;7331354;19;108939;-74
2023/08/02 11:11:43;;;;;;;;;;;23.40;99.90;;;;;;7327754;19;110743;-69
2023/08/02 11:14:24;;;;;;;;;;;23.50;99.90;;;;;;7334582;19;109808;-73
2023/08/02 11:16:51;;;;;;;;;;;23.70;99.90;;;;;;7335395;19;110550;-71
2023/08/02 11:19:21;;;;;;;;;;;23.90;99.90;;;;;;7331958;19;109363;-69
2023/08/02 11:21:55;;;;;;;;;;;23.90;99.90;;;;;;7336621;19;109007;-77
2023/08/02 11:24:23;;;;;;;;;;;23.90;99.90;;;;;;7330397;19;108784;-75
2023/08/02 11:26:58;;;;;;;;;;;23.90;99.90;;;;;;7341236;19;110476;-70
2023/08/02 11:29:26;;;;;;;;;;;23.90;99.90;;;;;;7338023;19;109113;-77
2023/08/02 11:31:53;;;;;;;;;;;23.90;99.90;;;;;;7342796;19;109042;-70
2023/08/02 11:34:42;;;;;;;;;;;23.80;99.90;;;;;;7340001;19;109300;-74
2023/08/02 11:37:09;;;;;;;;;;;23.80;99.90;;;;;;7339912;19;110169;-67
2023/08/02 11:39:49;;;;;;;;;;;23.90;99.90;;;;;;7343223;19;111286;-71
2023/08/02 11:42:48;;;;;;;;;;;23.90;99.90;;;;;;7337902;19;108899;-75
2023/08/02 11:45:28;;;;;;;;;;;23.90;99.90;;;;;;7337807;19;109286;-75
2023/08/02 11:47:55;;;;;;;;;;;24.00;99.90;;;;;;7339713;19;109193;-74
2023/08/02 11:50:36;;;;;;;;;;;24.10;99.90;;;;;;7341373;19;108818;-71
2023/08/02 11:53:09;;;;;;;;;;;24.20;99.90;;;;;;7341353;19;109424;-76
2023/08/02 11:55:38;;;;;;;;;;;24.30;99.90;;;;;;7341099;19;109937;-75
2023/08/02 11:58:06;;;;;;;;;;;24.30;99.90;;;;;;7338349;19;110538;-71
2023/08/02 12:00:34;;;;;;;;;;;24.40;99.90;;;;;;7339710;19;109248;-70
2023/08/02 12:03:11;;;;;;;;;;;24.40;99.90;;;;;;7344375;19;109181;-69
2023/08/02 12:05:38;;;;;;;;;;;24.50;99.90;;;;;;7338220;19;109224;-77
2023/08/02 12:08:13;;;;;;;;;;;24.40;99.90;;;;;;7340454;19;109253;-72
2023/08/02 12:10:40;;;;;;;;;;;24.40;99.90;;;;;;7338507;19;109274;-71
2023/08/02 12:13:09;;;;;;;;;;;24.50;99.90;;;;;;7340595;19;108679;-73
2023/08/02 12:15:37;;;;;;;;;;;24.50;99.90;;;;;;7335987;19;110259;-71
2023/08/02 12:18:05;;;;;;;;;;;24.40;99.90;;;;;;7338338;19;108653;-72
2023/08/02 12:20:33;;;;;;;;;;;24.40;99.90;;;;;;7334235;19;109096;-72
2023/08/02 12:23:00;;;;;;;;;;;24.50;99.90;;;;;;7331464;19;109107;-72
2023/08/02 12:25:41;;;;;;;;;;;24.60;99.90;;;;;;7345998;19;109467;-70
2023/08/02 12:28:12;;;;;;;;;;;24.80;99.90;;;;;;7329063;19;110531;-66
2023/08/02 12:30:39;;;;;;;;;;;24.80;99.90;;;;;;7341445;19;108609;-67
2023/08/02 12:33:06;;;;;;;;;;;24.80;99.90;;;;;;7336574;19;109350;-68
2023/08/02 12:35:33;;;;;;;;;;;24.80;99.90;;;;;;7332926;19;109143;-71
2023/08/02 12:38:00;;;;;;;;;;;24.80;99.90;;;;;;7338105;19;109240;-67
2023/08/02 12:40:27;;;;;;;;;;;24.80;99.90;;;;;;7333975;19;109514;-67
2023/08/02 12:42:54;;;;;;;;;;;24.70;99.90;;;;;;7339195;19;109078;-67
2023/08/02 12:45:29;;;;;;;;;;;24.60;99.90;;;;;;7337609;19;109099;-68
2023/08/02 12:47:56;;;;;;;;;;;24.50;99.90;;;;;;7339403;19;109425;-66
2023/08/02 12:50:23;;;;;;;;;;;24.40;99.90;;;;;;7337435;19;109909;-66
2023/08/02 12:52:53;;;;;;;;;;;24.30;99.90;;;;;;7339881;19;108964;-68
2023/08/02 12:57:56;;;;;;;;;;;24.20;99.90;;;;;;7342120;19;109653;-90
2023/08/02 13:02:59;;;;;;;;;;;24.20;99.90;;;;;;7330438;19;110673;-67
2023/08/02 13:05:27;;;;;;;;;;;24.40;99.90;;;;;;7336175;19;110659;-67
2023/08/02 13:07:54;;;;;;;;;;;24.40;99.90;;;;;;7338548;19;109913;-68
2023/08/02 13:10:22;;;;;;;;;;;24.50;99.90;;;;;;7331899;19;110914;-66
2023/08/02 13:12:49;;;;;;;;;;;24.60;99.90;;;;;;7336249;19;109659;-67
2023/08/02 13:15:16;;;;;;;;;;;24.80;99.90;;;;;;7333338;19;109520;-69
2023/08/02 13:17:46;;;;;;;;;;;24.90;99.90;;;;;;7337397;19;108738;-67
2023/08/02 13:20:14;;;;;;;;;;;25.10;99.90;;;;;;7335148;19;108927;-66
2023/08/02 13:22:41;;;;;;;;;;;25.20;99.90;;;;;;7333448;19;110151;-67
2023/08/02 13:25:08;;;;;;;;;;;25.10;99.90;;;;;;7333793;19;109072;-66
2023/08/02 13:27:35;;;;;;;;;;;25.20;99.90;;;;;;7334348;19;108674;-66
2023/08/02 13:30:03;;;;;;;;;;;25.20;99.90;;;;;;7337447;19;109091;-67
2023/08/02 13:32:33;;;;;;;;;;;25.20;99.90;;;;;;7332983;19;110614;-66
2023/08/02 13:35:02;;;;;;;;;;;25.30;99.90;;;;;;7334832;19;109403;-67
2023/08/02 13:37:31;;;;;;;;;;;25.40;99.90;;;;;;7330995;19;108470;-67
2023/08/02 13:39:58;;;;;;;;;;;25.40;99.90;;;;;;7333769;19;108473;-68
2023/08/02 13:42:26;;;;;;;;;;;25.50;99.90;;;;;;7327723;19;111182;-67
2023/08/02 13:44:54;;;;;;;;;;;25.60;99.90;;;;;;7335585;19;109587;-67
2023/08/02 13:47:21;;;;;;;;;;;25.60;99.90;;;;;;7332124;19;109292;-67
2023/08/02 13:49:48;;;;;;;;;;;25.70;99.90;;;;;;7335733;19;109512;-67
2023/08/02 13:52:19;;;;;;;;;;;25.80;99.90;;;;;;7335080;19;108839;-67
2023/08/02 13:54:46;;;;;;;;;;;25.90;99.90;;;;;;7338268;19;109819;-66
2023/08/02 13:57:13;;;;;;;;;;;25.80;99.90;;;;;;7335609;19;108458;-67
2023/08/02 13:59:40;;;;;;;;;;;25.80;99.90;;;;;;7333587;19;108469;-66
2023/08/02 14:02:07;;;;;;;;;;;25.70;99.90;;;;;;7336981;19;109275;-66
2023/08/02 14:04:34;;;;;;;;;;;25.50;99.90;;;;;;7328939;19;110229;-66
2023/08/02 14:07:02;;;;;;;;;;;25.50;99.90;;;;;;7333255;19;108383;-66
2023/08/02 14:09:29;;;;;;;;;;;25.40;99.90;;;;;;7336264;19;110223;-66
2023/08/02 14:11:57;;;;;;;;;;;25.40;99.90;;;;;;7338302;19;108814;-90
2023/08/02 14:14:25;;;;;;;;;;;25.40;99.90;;;;;;7341454;19;109147;-67
2023/08/02 14:16:52;;;;;;;;;;;25.30;99.90;;;;;;7331707;19;110386;-66